<?xml version="1.0" encoding="UTF-8" standalone="no" ?>
<gpx xmlns="http://www.topografix.com/GPX/1/1" xmlns:xsi="http://www.w3.org/2001/XMLSchema-instance" xsi:schemaLocation="http://www.topografix.com/GPX/1/1 http://www.topografix.com/GPX/1/1/gpx.xsd" version="1.1" creator="VisuGPX - https://www.visugpx.com">
  <metadata>
    <name>Mimet -  pilon du roi. massif de l'étoile </name>
    <desc><![CDATA[2020-01-03 11:25
Pilon du roi en boucle depuis mimet, tour dans la partie sud du massif de l'Etoile]]></desc>
  </metadata>
  <wpt lat="43.41064" lon="5.49091">
    <ele>574.37</ele>
    <name><![CDATA[0000120]]></name>
    <type><![CDATA[Point de départ]]></type>
  </wpt>
  <wpt lat="43.41069" lon="5.49088">
    <ele>560.7</ele>
    <name><![CDATA[0000121]]></name>
    <desc><![CDATA[<p><br /><h3>Nom: Segment: 1</h3><br />Heure de départ: 11:25 3 janv. 2020<br/>Heure d'arrivée: 16:14 3 janv. 2020<br/>Distance: 10,9km (04:48)<br/>Temps déplacement: 03:22<br/>Vitesse moyenne: 2,27 km/h<br/>Vitesse moyenne mouv.: 3,24 km/h<br/>Vitesse Max.: 7,27 km/h<br/>Altitude minimale: 335 m<br/>Altitude maximale: 678 m<br/>Vitesse de montée: 159,8 m/h<br/>Vitesse de descente: -170,5 m/h<br/>Gain d'altitude: 381 m<br/>Perte d'altitude: -392 m<br/>Temps de montée: 02:23<br/>Temps de descente: 02:18<br/></p>]]></desc>
    <type><![CDATA[Point d'arrivée]]></type>
  </wpt>
  <trk>
    <name><![CDATA[2020-01-03 11:25 - pilon du roi. massif de l'étoile ]]></name>
    <desc><![CDATA[<p>Heure de départ: 11:25 3 janv. 2020<br/>Heure d'arrivée: 16:14 3 janv. 2020<br/>Distance: 10,9 km (04:48)<br/>Temps déplacement: 03:22<br/>Vitesse moyenne: 2,27 km/h<br/>Vitesse moyenne mouv.: 3,24 km/h<br/>Vitesse Max.: 7,27 km/h<br/>Altitude minimale: 335 m<br/>Altitude maximale: 678 m<br/>Vitesse de montée: 174,1 m/h<br/>Vitesse de descente: -147,4 m/h<br/>Gain d'altitude: 381 m<br/>Perte d'altitude: -379 m<br/>Temps de montée: 02:11<br/>Temps de descente: 02:34<br/></p><hr align="center" width="480" style="height: 2px; width: 517px"/>]]></desc>
    <trkseg>
      <trkpt lat="43.41064" lon="5.49091">
        <ele>574.37</ele>
        <time>2020-01-03T10:25:44Z</time>
      </trkpt>
      <trkpt lat="43.41056" lon="5.49068">
        <ele>542.35</ele>
        <time>2020-01-03T10:29:41Z</time>
      </trkpt>
      <trkpt lat="43.41046" lon="5.49047">
        <ele>542.19</ele>
        <time>2020-01-03T10:30:54Z</time>
      </trkpt>
      <trkpt lat="43.41034" lon="5.49028">
        <ele>542.38</ele>
        <time>2020-01-03T10:31:10Z</time>
      </trkpt>
      <trkpt lat="43.41028" lon="5.49004">
        <ele>542.69</ele>
        <time>2020-01-03T10:31:30Z</time>
      </trkpt>
      <trkpt lat="43.41025" lon="5.48978">
        <ele>543.08</ele>
        <time>2020-01-03T10:31:48Z</time>
      </trkpt>
      <trkpt lat="43.41016" lon="5.48956">
        <ele>543.32</ele>
        <time>2020-01-03T10:32:06Z</time>
      </trkpt>
      <trkpt lat="43.41009" lon="5.48933">
        <ele>543.41</ele>
        <time>2020-01-03T10:32:27Z</time>
      </trkpt>
      <trkpt lat="43.41008" lon="5.48907">
        <ele>543.46</ele>
        <time>2020-01-03T10:32:46Z</time>
      </trkpt>
      <trkpt lat="43.41004" lon="5.48883">
        <ele>543.47</ele>
        <time>2020-01-03T10:33:06Z</time>
      </trkpt>
      <trkpt lat="43.41" lon="5.48858">
        <ele>543.46</ele>
        <time>2020-01-03T10:33:27Z</time>
      </trkpt>
      <trkpt lat="43.40992" lon="5.48834">
        <ele>543.46</ele>
        <time>2020-01-03T10:33:45Z</time>
      </trkpt>
      <trkpt lat="43.40983" lon="5.48813">
        <ele>543.49</ele>
        <time>2020-01-03T10:33:58Z</time>
      </trkpt>
      <trkpt lat="43.40981" lon="5.48788">
        <ele>543.59</ele>
        <time>2020-01-03T10:34:18Z</time>
      </trkpt>
      <trkpt lat="43.40983" lon="5.48762">
        <ele>543.96</ele>
        <time>2020-01-03T10:34:55Z</time>
      </trkpt>
      <trkpt lat="43.40977" lon="5.48739">
        <ele>544.21</ele>
        <time>2020-01-03T10:35:16Z</time>
      </trkpt>
      <trkpt lat="43.40966" lon="5.48718">
        <ele>544.39</ele>
        <time>2020-01-03T10:35:36Z</time>
      </trkpt>
      <trkpt lat="43.40957" lon="5.48696">
        <ele>544.62</ele>
        <time>2020-01-03T10:36:02Z</time>
      </trkpt>
      <trkpt lat="43.4095" lon="5.48672">
        <ele>544.82</ele>
        <time>2020-01-03T10:36:22Z</time>
      </trkpt>
      <trkpt lat="43.40949" lon="5.48645">
        <ele>545</ele>
        <time>2020-01-03T10:36:41Z</time>
      </trkpt>
      <trkpt lat="43.40942" lon="5.48621">
        <ele>545.2</ele>
        <time>2020-01-03T10:37:01Z</time>
      </trkpt>
      <trkpt lat="43.40934" lon="5.48598">
        <ele>545.4</ele>
        <time>2020-01-03T10:37:19Z</time>
      </trkpt>
      <trkpt lat="43.40927" lon="5.48575">
        <ele>545.64</ele>
        <time>2020-01-03T10:37:37Z</time>
      </trkpt>
      <trkpt lat="43.40922" lon="5.4855">
        <ele>545.9</ele>
        <time>2020-01-03T10:37:54Z</time>
      </trkpt>
      <trkpt lat="43.40914" lon="5.48526">
        <ele>546.4</ele>
        <time>2020-01-03T10:38:24Z</time>
      </trkpt>
      <trkpt lat="43.409" lon="5.4851">
        <ele>547.07</ele>
        <time>2020-01-03T10:38:45Z</time>
      </trkpt>
      <trkpt lat="43.40882" lon="5.48507">
        <ele>551.3</ele>
        <time>2020-01-03T10:42:46Z</time>
      </trkpt>
      <trkpt lat="43.40885" lon="5.48532">
        <ele>552.94</ele>
        <time>2020-01-03T10:43:18Z</time>
      </trkpt>
      <trkpt lat="43.40875" lon="5.48509">
        <ele>555.35</ele>
        <time>2020-01-03T10:43:53Z</time>
      </trkpt>
      <trkpt lat="43.40865" lon="5.48489">
        <ele>556.84</ele>
        <time>2020-01-03T10:44:11Z</time>
      </trkpt>
      <trkpt lat="43.40857" lon="5.48466">
        <ele>558.2</ele>
        <time>2020-01-03T10:44:28Z</time>
      </trkpt>
      <trkpt lat="43.40846" lon="5.48446">
        <ele>559.5</ele>
        <time>2020-01-03T10:44:49Z</time>
      </trkpt>
      <trkpt lat="43.40839" lon="5.48423">
        <ele>560.78</ele>
        <time>2020-01-03T10:45:11Z</time>
      </trkpt>
      <trkpt lat="43.40837" lon="5.48398">
        <ele>562.21</ele>
        <time>2020-01-03T10:45:33Z</time>
      </trkpt>
      <trkpt lat="43.40833" lon="5.48373">
        <ele>563.61</ele>
        <time>2020-01-03T10:45:53Z</time>
      </trkpt>
      <trkpt lat="43.4082" lon="5.48356">
        <ele>565.84</ele>
        <time>2020-01-03T10:46:35Z</time>
      </trkpt>
      <trkpt lat="43.40809" lon="5.48335">
        <ele>571.53</ele>
        <time>2020-01-03T10:48:53Z</time>
      </trkpt>
      <trkpt lat="43.40804" lon="5.48311">
        <ele>573.01</ele>
        <time>2020-01-03T10:49:11Z</time>
      </trkpt>
      <trkpt lat="43.40798" lon="5.48286">
        <ele>574.29</ele>
        <time>2020-01-03T10:49:29Z</time>
      </trkpt>
      <trkpt lat="43.40793" lon="5.48261">
        <ele>575.39</ele>
        <time>2020-01-03T10:49:47Z</time>
      </trkpt>
      <trkpt lat="43.40789" lon="5.48236">
        <ele>576.39</ele>
        <time>2020-01-03T10:50:05Z</time>
      </trkpt>
      <trkpt lat="43.40784" lon="5.48212">
        <ele>577.26</ele>
        <time>2020-01-03T10:50:23Z</time>
      </trkpt>
      <trkpt lat="43.40782" lon="5.48186">
        <ele>577.99</ele>
        <time>2020-01-03T10:50:40Z</time>
      </trkpt>
      <trkpt lat="43.40784" lon="5.48161">
        <ele>578.63</ele>
        <time>2020-01-03T10:50:57Z</time>
      </trkpt>
      <trkpt lat="43.40788" lon="5.48136">
        <ele>579.13</ele>
        <time>2020-01-03T10:51:12Z</time>
      </trkpt>
      <trkpt lat="43.40788" lon="5.48111">
        <ele>579.65</ele>
        <time>2020-01-03T10:51:30Z</time>
      </trkpt>
      <trkpt lat="43.40788" lon="5.48084">
        <ele>580.14</ele>
        <time>2020-01-03T10:51:49Z</time>
      </trkpt>
      <trkpt lat="43.40785" lon="5.48058">
        <ele>580.53</ele>
        <time>2020-01-03T10:52:05Z</time>
      </trkpt>
      <trkpt lat="43.40781" lon="5.48033">
        <ele>580.89</ele>
        <time>2020-01-03T10:52:20Z</time>
      </trkpt>
      <trkpt lat="43.40779" lon="5.48008">
        <ele>581.31</ele>
        <time>2020-01-03T10:52:37Z</time>
      </trkpt>
      <trkpt lat="43.40774" lon="5.47982">
        <ele>581.71</ele>
        <time>2020-01-03T10:52:53Z</time>
      </trkpt>
      <trkpt lat="43.40769" lon="5.47957">
        <ele>582.12</ele>
        <time>2020-01-03T10:53:11Z</time>
      </trkpt>
      <trkpt lat="43.40759" lon="5.47936">
        <ele>582.43</ele>
        <time>2020-01-03T10:53:26Z</time>
      </trkpt>
      <trkpt lat="43.40752" lon="5.47912">
        <ele>582.67</ele>
        <time>2020-01-03T10:53:41Z</time>
      </trkpt>
      <trkpt lat="43.40747" lon="5.47888">
        <ele>582.86</ele>
        <time>2020-01-03T10:53:56Z</time>
      </trkpt>
      <trkpt lat="43.40742" lon="5.47865">
        <ele>583.01</ele>
        <time>2020-01-03T10:54:12Z</time>
      </trkpt>
      <trkpt lat="43.40736" lon="5.4784">
        <ele>583.17</ele>
        <time>2020-01-03T10:54:30Z</time>
      </trkpt>
      <trkpt lat="43.40729" lon="5.47816">
        <ele>583.35</ele>
        <time>2020-01-03T10:54:50Z</time>
      </trkpt>
      <trkpt lat="43.40721" lon="5.47793">
        <ele>583.63</ele>
        <time>2020-01-03T10:55:10Z</time>
      </trkpt>
      <trkpt lat="43.40709" lon="5.47774">
        <ele>584</ele>
        <time>2020-01-03T10:55:37Z</time>
      </trkpt>
      <trkpt lat="43.40695" lon="5.47757">
        <ele>584.38</ele>
        <time>2020-01-03T10:55:59Z</time>
      </trkpt>
      <trkpt lat="43.40682" lon="5.47739">
        <ele>584.68</ele>
        <time>2020-01-03T10:56:17Z</time>
      </trkpt>
      <trkpt lat="43.40666" lon="5.47725">
        <ele>585.12</ele>
        <time>2020-01-03T10:56:40Z</time>
      </trkpt>
      <trkpt lat="43.4065" lon="5.47711">
        <ele>585.55</ele>
        <time>2020-01-03T10:57:03Z</time>
      </trkpt>
      <trkpt lat="43.40633" lon="5.47702">
        <ele>585.96</ele>
        <time>2020-01-03T10:57:20Z</time>
      </trkpt>
      <trkpt lat="43.40622" lon="5.47682">
        <ele>586.48</ele>
        <time>2020-01-03T10:57:40Z</time>
      </trkpt>
      <trkpt lat="43.40612" lon="5.47661">
        <ele>586.98</ele>
        <time>2020-01-03T10:57:59Z</time>
      </trkpt>
      <trkpt lat="43.40601" lon="5.4764">
        <ele>587.42</ele>
        <time>2020-01-03T10:58:16Z</time>
      </trkpt>
      <trkpt lat="43.4059" lon="5.47619">
        <ele>587.83</ele>
        <time>2020-01-03T10:58:32Z</time>
      </trkpt>
      <trkpt lat="43.40576" lon="5.47602">
        <ele>588.37</ele>
        <time>2020-01-03T10:58:51Z</time>
      </trkpt>
      <trkpt lat="43.40562" lon="5.47585">
        <ele>588.87</ele>
        <time>2020-01-03T10:59:09Z</time>
      </trkpt>
      <trkpt lat="43.40545" lon="5.47579">
        <ele>589.49</ele>
        <time>2020-01-03T10:59:30Z</time>
      </trkpt>
      <trkpt lat="43.40527" lon="5.47578">
        <ele>589.83</ele>
        <time>2020-01-03T10:59:43Z</time>
      </trkpt>
      <trkpt lat="43.40515" lon="5.47558">
        <ele>590.33</ele>
        <time>2020-01-03T11:00:05Z</time>
      </trkpt>
      <trkpt lat="43.40506" lon="5.47536">
        <ele>590.74</ele>
        <time>2020-01-03T11:00:24Z</time>
      </trkpt>
      <trkpt lat="43.40502" lon="5.47512">
        <ele>591.16</ele>
        <time>2020-01-03T11:00:39Z</time>
      </trkpt>
      <trkpt lat="43.40498" lon="5.47486">
        <ele>591.77</ele>
        <time>2020-01-03T11:00:56Z</time>
      </trkpt>
      <trkpt lat="43.40499" lon="5.47461">
        <ele>592.56</ele>
        <time>2020-01-03T11:01:15Z</time>
      </trkpt>
      <trkpt lat="43.40495" lon="5.47436">
        <ele>593.46</ele>
        <time>2020-01-03T11:01:35Z</time>
      </trkpt>
      <trkpt lat="43.40479" lon="5.47423">
        <ele>594.34</ele>
        <time>2020-01-03T11:01:54Z</time>
      </trkpt>
      <trkpt lat="43.40474" lon="5.47399">
        <ele>595.08</ele>
        <time>2020-01-03T11:02:11Z</time>
      </trkpt>
      <trkpt lat="43.4047" lon="5.47374">
        <ele>595.73</ele>
        <time>2020-01-03T11:02:25Z</time>
      </trkpt>
      <trkpt lat="43.40462" lon="5.47351">
        <ele>596.56</ele>
        <time>2020-01-03T11:02:42Z</time>
      </trkpt>
      <trkpt lat="43.40452" lon="5.4733">
        <ele>597.25</ele>
        <time>2020-01-03T11:03:00Z</time>
      </trkpt>
      <trkpt lat="43.40448" lon="5.47304">
        <ele>597.7</ele>
        <time>2020-01-03T11:03:15Z</time>
      </trkpt>
      <trkpt lat="43.40443" lon="5.4728">
        <ele>598.13</ele>
        <time>2020-01-03T11:03:30Z</time>
      </trkpt>
      <trkpt lat="43.40434" lon="5.47258">
        <ele>598.59</ele>
        <time>2020-01-03T11:03:48Z</time>
      </trkpt>
      <trkpt lat="43.40427" lon="5.47235">
        <ele>598.95</ele>
        <time>2020-01-03T11:04:07Z</time>
      </trkpt>
      <trkpt lat="43.40422" lon="5.4721">
        <ele>599.14</ele>
        <time>2020-01-03T11:04:30Z</time>
      </trkpt>
      <trkpt lat="43.40427" lon="5.47186">
        <ele>599.28</ele>
        <time>2020-01-03T11:04:40Z</time>
      </trkpt>
      <trkpt lat="43.40432" lon="5.47162">
        <ele>599.66</ele>
        <time>2020-01-03T11:04:56Z</time>
      </trkpt>
      <trkpt lat="43.40444" lon="5.47142">
        <ele>600.43</ele>
        <time>2020-01-03T11:05:16Z</time>
      </trkpt>
      <trkpt lat="43.40461" lon="5.47135">
        <ele>601.29</ele>
        <time>2020-01-03T11:05:34Z</time>
      </trkpt>
      <trkpt lat="43.40478" lon="5.47123">
        <ele>602.21</ele>
        <time>2020-01-03T11:05:54Z</time>
      </trkpt>
      <trkpt lat="43.40492" lon="5.47108">
        <ele>603.28</ele>
        <time>2020-01-03T11:06:18Z</time>
      </trkpt>
      <trkpt lat="43.40499" lon="5.47084">
        <ele>604.15</ele>
        <time>2020-01-03T11:06:41Z</time>
      </trkpt>
      <trkpt lat="43.40507" lon="5.47062">
        <ele>605.26</ele>
        <time>2020-01-03T11:07:03Z</time>
      </trkpt>
      <trkpt lat="43.40518" lon="5.4704">
        <ele>606.29</ele>
        <time>2020-01-03T11:07:22Z</time>
      </trkpt>
      <trkpt lat="43.40516" lon="5.47014">
        <ele>607.82</ele>
        <time>2020-01-03T11:07:46Z</time>
      </trkpt>
      <trkpt lat="43.40519" lon="5.46989">
        <ele>609.01</ele>
        <time>2020-01-03T11:08:03Z</time>
      </trkpt>
      <trkpt lat="43.40524" lon="5.46965">
        <ele>610.2</ele>
        <time>2020-01-03T11:08:19Z</time>
      </trkpt>
      <trkpt lat="43.40529" lon="5.46941">
        <ele>611.93</ele>
        <time>2020-01-03T11:08:39Z</time>
      </trkpt>
      <trkpt lat="43.4053" lon="5.46915">
        <ele>613.72</ele>
        <time>2020-01-03T11:08:58Z</time>
      </trkpt>
      <trkpt lat="43.40532" lon="5.4689">
        <ele>616.88</ele>
        <time>2020-01-03T11:09:48Z</time>
      </trkpt>
      <trkpt lat="43.40536" lon="5.46865">
        <ele>618.24</ele>
        <time>2020-01-03T11:10:10Z</time>
      </trkpt>
      <trkpt lat="43.40546" lon="5.46844">
        <ele>619.21</ele>
        <time>2020-01-03T11:10:29Z</time>
      </trkpt>
      <trkpt lat="43.40563" lon="5.46834">
        <ele>619.85</ele>
        <time>2020-01-03T11:10:43Z</time>
      </trkpt>
      <trkpt lat="43.40581" lon="5.46833">
        <ele>620.53</ele>
        <time>2020-01-03T11:11:01Z</time>
      </trkpt>
      <trkpt lat="43.406" lon="5.4683">
        <ele>621.23</ele>
        <time>2020-01-03T11:11:18Z</time>
      </trkpt>
      <trkpt lat="43.40618" lon="5.46823">
        <ele>621.99</ele>
        <time>2020-01-03T11:11:39Z</time>
      </trkpt>
      <trkpt lat="43.40608" lon="5.46802">
        <ele>624.61</ele>
        <time>2020-01-03T11:12:38Z</time>
      </trkpt>
      <trkpt lat="43.40592" lon="5.46792">
        <ele>625.21</ele>
        <time>2020-01-03T11:12:57Z</time>
      </trkpt>
      <trkpt lat="43.4058" lon="5.46772">
        <ele>625.72</ele>
        <time>2020-01-03T11:13:18Z</time>
      </trkpt>
      <trkpt lat="43.40577" lon="5.46748">
        <ele>626.38</ele>
        <time>2020-01-03T11:13:41Z</time>
      </trkpt>
      <trkpt lat="43.40569" lon="5.46725">
        <ele>627.03</ele>
        <time>2020-01-03T11:13:58Z</time>
      </trkpt>
      <trkpt lat="43.40554" lon="5.4671">
        <ele>627.65</ele>
        <time>2020-01-03T11:14:12Z</time>
      </trkpt>
      <trkpt lat="43.40539" lon="5.46694">
        <ele>628.53</ele>
        <time>2020-01-03T11:14:30Z</time>
      </trkpt>
      <trkpt lat="43.40541" lon="5.46669">
        <ele>629.79</ele>
        <time>2020-01-03T11:14:50Z</time>
      </trkpt>
      <trkpt lat="43.40543" lon="5.46644">
        <ele>631.4</ele>
        <time>2020-01-03T11:15:15Z</time>
      </trkpt>
      <trkpt lat="43.40544" lon="5.46619">
        <ele>633.79</ele>
        <time>2020-01-03T11:15:44Z</time>
      </trkpt>
      <trkpt lat="43.40547" lon="5.46594">
        <ele>636.69</ele>
        <time>2020-01-03T11:16:14Z</time>
      </trkpt>
      <trkpt lat="43.4054" lon="5.46571">
        <ele>641.94</ele>
        <time>2020-01-03T11:17:35Z</time>
      </trkpt>
      <trkpt lat="43.40538" lon="5.46545">
        <ele>647.4</ele>
        <time>2020-01-03T11:18:56Z</time>
      </trkpt>
      <trkpt lat="43.4053" lon="5.46522">
        <ele>649.74</ele>
        <time>2020-01-03T11:19:22Z</time>
      </trkpt>
      <trkpt lat="43.40525" lon="5.46498">
        <ele>652.22</ele>
        <time>2020-01-03T11:19:52Z</time>
      </trkpt>
      <trkpt lat="43.4052" lon="5.46474">
        <ele>655.03</ele>
        <time>2020-01-03T11:20:28Z</time>
      </trkpt>
      <trkpt lat="43.4052" lon="5.46449">
        <ele>658.16</ele>
        <time>2020-01-03T11:22:01Z</time>
      </trkpt>
      <trkpt lat="43.40525" lon="5.46424">
        <ele>659.02</ele>
        <time>2020-01-03T11:22:31Z</time>
      </trkpt>
      <trkpt lat="43.40526" lon="5.46399">
        <ele>659.5</ele>
        <time>2020-01-03T11:23:00Z</time>
      </trkpt>
      <trkpt lat="43.4053" lon="5.46373">
        <ele>659.84</ele>
        <time>2020-01-03T11:23:25Z</time>
      </trkpt>
      <trkpt lat="43.40525" lon="5.46349">
        <ele>660.39</ele>
        <time>2020-01-03T11:24:07Z</time>
      </trkpt>
      <trkpt lat="43.40524" lon="5.46325">
        <ele>661.34</ele>
        <time>2020-01-03T11:24:57Z</time>
      </trkpt>
      <trkpt lat="43.40529" lon="5.463">
        <ele>662.18</ele>
        <time>2020-01-03T11:25:31Z</time>
      </trkpt>
      <trkpt lat="43.40531" lon="5.46275">
        <ele>662.89</ele>
        <time>2020-01-03T11:26:06Z</time>
      </trkpt>
      <trkpt lat="43.40527" lon="5.4625">
        <ele>671.01</ele>
        <time>2020-01-03T11:30:01Z</time>
      </trkpt>
      <trkpt lat="43.40522" lon="5.46225">
        <ele>671.29</ele>
        <time>2020-01-03T11:30:34Z</time>
      </trkpt>
      <trkpt lat="43.40524" lon="5.4625">
        <ele>678.68</ele>
        <time>2020-01-03T11:43:31Z</time>
      </trkpt>
      <trkpt lat="43.40507" lon="5.46242">
        <ele>677.4</ele>
        <time>2020-01-03T11:44:11Z</time>
      </trkpt>
      <trkpt lat="43.40491" lon="5.46228">
        <ele>675</ele>
        <time>2020-01-03T11:45:20Z</time>
      </trkpt>
      <trkpt lat="43.40479" lon="5.46209">
        <ele>673.97</ele>
        <time>2020-01-03T11:45:37Z</time>
      </trkpt>
      <trkpt lat="43.40463" lon="5.46197">
        <ele>672.61</ele>
        <time>2020-01-03T11:46:04Z</time>
      </trkpt>
      <trkpt lat="43.40447" lon="5.46184">
        <ele>671.68</ele>
        <time>2020-01-03T11:46:23Z</time>
      </trkpt>
      <trkpt lat="43.40431" lon="5.46172">
        <ele>670.66</ele>
        <time>2020-01-03T11:46:43Z</time>
      </trkpt>
      <trkpt lat="43.4042" lon="5.46151">
        <ele>669.32</ele>
        <time>2020-01-03T11:47:10Z</time>
      </trkpt>
      <trkpt lat="43.40411" lon="5.4613">
        <ele>668.37</ele>
        <time>2020-01-03T11:47:31Z</time>
      </trkpt>
      <trkpt lat="43.40394" lon="5.46119">
        <ele>666.98</ele>
        <time>2020-01-03T11:47:59Z</time>
      </trkpt>
      <trkpt lat="43.40377" lon="5.46112">
        <ele>665.59</ele>
        <time>2020-01-03T11:48:26Z</time>
      </trkpt>
      <trkpt lat="43.40359" lon="5.46105">
        <ele>664.24</ele>
        <time>2020-01-03T11:48:54Z</time>
      </trkpt>
      <trkpt lat="43.40341" lon="5.46101">
        <ele>662.93</ele>
        <time>2020-01-03T11:49:25Z</time>
      </trkpt>
      <trkpt lat="43.40327" lon="5.46085">
        <ele>662.1</ele>
        <time>2020-01-03T11:49:43Z</time>
      </trkpt>
      <trkpt lat="43.40317" lon="5.46064">
        <ele>661.09</ele>
        <time>2020-01-03T11:50:03Z</time>
      </trkpt>
      <trkpt lat="43.40309" lon="5.46041">
        <ele>659.85</ele>
        <time>2020-01-03T11:50:28Z</time>
      </trkpt>
      <trkpt lat="43.40295" lon="5.46025">
        <ele>657.53</ele>
        <time>2020-01-03T11:51:25Z</time>
      </trkpt>
      <trkpt lat="43.40277" lon="5.4602">
        <ele>655.92</ele>
        <time>2020-01-03T11:52:03Z</time>
      </trkpt>
      <trkpt lat="43.40259" lon="5.46012">
        <ele>653.01</ele>
        <time>2020-01-03T11:52:43Z</time>
      </trkpt>
      <trkpt lat="43.40247" lon="5.46032">
        <ele>648.85</ele>
        <time>2020-01-03T11:53:28Z</time>
      </trkpt>
      <trkpt lat="43.40229" lon="5.4603">
        <ele>640.81</ele>
        <time>2020-01-03T11:54:47Z</time>
      </trkpt>
      <trkpt lat="43.40212" lon="5.46038">
        <ele>637.08</ele>
        <time>2020-01-03T11:55:15Z</time>
      </trkpt>
      <trkpt lat="43.40194" lon="5.4603">
        <ele>633.52</ele>
        <time>2020-01-03T11:55:45Z</time>
      </trkpt>
      <trkpt lat="43.40176" lon="5.46035">
        <ele>629.02</ele>
        <time>2020-01-03T11:56:32Z</time>
      </trkpt>
      <trkpt lat="43.4016" lon="5.46023">
        <ele>626.37</ele>
        <time>2020-01-03T11:57:01Z</time>
      </trkpt>
      <trkpt lat="43.40143" lon="5.46013">
        <ele>623.42</ele>
        <time>2020-01-03T11:57:31Z</time>
      </trkpt>
      <trkpt lat="43.40125" lon="5.46006">
        <ele>620.24</ele>
        <time>2020-01-03T11:57:58Z</time>
      </trkpt>
      <trkpt lat="43.40108" lon="5.46002">
        <ele>617.38</ele>
        <time>2020-01-03T11:58:20Z</time>
      </trkpt>
      <trkpt lat="43.40089" lon="5.46003">
        <ele>614.74</ele>
        <time>2020-01-03T11:58:41Z</time>
      </trkpt>
      <trkpt lat="43.40071" lon="5.46006">
        <ele>611.73</ele>
        <time>2020-01-03T11:59:05Z</time>
      </trkpt>
      <trkpt lat="43.40052" lon="5.46011">
        <ele>609.22</ele>
        <time>2020-01-03T11:59:26Z</time>
      </trkpt>
      <trkpt lat="43.40033" lon="5.46013">
        <ele>606.82</ele>
        <time>2020-01-03T11:59:48Z</time>
      </trkpt>
      <trkpt lat="43.40017" lon="5.46025">
        <ele>584.55</ele>
        <time>2020-01-03T12:04:24Z</time>
      </trkpt>
      <trkpt lat="43.40013" lon="5.46049">
        <ele>576.29</ele>
        <time>2020-01-03T12:05:22Z</time>
      </trkpt>
      <trkpt lat="43.39999" lon="5.46066">
        <ele>572.55</ele>
        <time>2020-01-03T12:05:55Z</time>
      </trkpt>
      <trkpt lat="43.39983" lon="5.4608">
        <ele>568.22</ele>
        <time>2020-01-03T12:06:33Z</time>
      </trkpt>
      <trkpt lat="43.39965" lon="5.46079">
        <ele>561.47</ele>
        <time>2020-01-03T12:07:21Z</time>
      </trkpt>
      <trkpt lat="43.39946" lon="5.46075">
        <ele>557.38</ele>
        <time>2020-01-03T12:07:47Z</time>
      </trkpt>
      <trkpt lat="43.3993" lon="5.46086">
        <ele>549.97</ele>
        <time>2020-01-03T12:08:30Z</time>
      </trkpt>
      <trkpt lat="43.39933" lon="5.46111">
        <ele>539.82</ele>
        <time>2020-01-03T12:09:27Z</time>
      </trkpt>
      <trkpt lat="43.3994" lon="5.46134">
        <ele>531.25</ele>
        <time>2020-01-03T12:10:18Z</time>
      </trkpt>
      <trkpt lat="43.39932" lon="5.46157">
        <ele>523.52</ele>
        <time>2020-01-03T12:11:02Z</time>
      </trkpt>
      <trkpt lat="43.39938" lon="5.46181">
        <ele>516.76</ele>
        <time>2020-01-03T12:11:39Z</time>
      </trkpt>
      <trkpt lat="43.39925" lon="5.46198">
        <ele>508.4</ele>
        <time>2020-01-03T12:12:51Z</time>
      </trkpt>
      <trkpt lat="43.39907" lon="5.46192">
        <ele>495.66</ele>
        <time>2020-01-03T12:17:32Z</time>
      </trkpt>
      <trkpt lat="43.39889" lon="5.46196">
        <ele>493.81</ele>
        <time>2020-01-03T12:17:59Z</time>
      </trkpt>
      <trkpt lat="43.39871" lon="5.462">
        <ele>492.81</ele>
        <time>2020-01-03T12:18:17Z</time>
      </trkpt>
      <trkpt lat="43.39853" lon="5.46201">
        <ele>491.86</ele>
        <time>2020-01-03T12:18:38Z</time>
      </trkpt>
      <trkpt lat="43.39834" lon="5.46209">
        <ele>490.36</ele>
        <time>2020-01-03T12:19:11Z</time>
      </trkpt>
      <trkpt lat="43.3982" lon="5.46224">
        <ele>489.24</ele>
        <time>2020-01-03T12:19:40Z</time>
      </trkpt>
      <trkpt lat="43.39801" lon="5.46226">
        <ele>488.12</ele>
        <time>2020-01-03T12:20:06Z</time>
      </trkpt>
      <trkpt lat="43.39787" lon="5.46242">
        <ele>486.64</ele>
        <time>2020-01-03T12:20:44Z</time>
      </trkpt>
      <trkpt lat="43.39769" lon="5.46246">
        <ele>485.41</ele>
        <time>2020-01-03T12:21:11Z</time>
      </trkpt>
      <trkpt lat="43.39753" lon="5.46259">
        <ele>484.03</ele>
        <time>2020-01-03T12:21:38Z</time>
      </trkpt>
      <trkpt lat="43.39742" lon="5.46279">
        <ele>482.31</ele>
        <time>2020-01-03T12:22:11Z</time>
      </trkpt>
      <trkpt lat="43.39737" lon="5.46304">
        <ele>480.52</ele>
        <time>2020-01-03T12:22:47Z</time>
      </trkpt>
      <trkpt lat="43.39723" lon="5.4632">
        <ele>477.89</ele>
        <time>2020-01-03T12:23:16Z</time>
      </trkpt>
      <trkpt lat="43.39707" lon="5.46331">
        <ele>474.36</ele>
        <time>2020-01-03T12:23:43Z</time>
      </trkpt>
      <trkpt lat="43.39695" lon="5.4635">
        <ele>469.05</ele>
        <time>2020-01-03T12:24:15Z</time>
      </trkpt>
      <trkpt lat="43.39693" lon="5.46375">
        <ele>464.06</ele>
        <time>2020-01-03T12:24:45Z</time>
      </trkpt>
      <trkpt lat="43.39692" lon="5.46401">
        <ele>458.87</ele>
        <time>2020-01-03T12:25:20Z</time>
      </trkpt>
      <trkpt lat="43.39693" lon="5.46426">
        <ele>454.83</ele>
        <time>2020-01-03T12:25:45Z</time>
      </trkpt>
      <trkpt lat="43.39693" lon="5.46451">
        <ele>450.41</ele>
        <time>2020-01-03T12:26:13Z</time>
      </trkpt>
      <trkpt lat="43.39702" lon="5.46472">
        <ele>446.3</ele>
        <time>2020-01-03T12:26:44Z</time>
      </trkpt>
      <trkpt lat="43.39704" lon="5.46498">
        <ele>427.02</ele>
        <time>2020-01-03T13:02:05Z</time>
      </trkpt>
      <trkpt lat="43.39698" lon="5.46522">
        <ele>426.99</ele>
        <time>2020-01-03T13:02:29Z</time>
      </trkpt>
      <trkpt lat="43.39686" lon="5.46542">
        <ele>426.93</ele>
        <time>2020-01-03T13:03:07Z</time>
      </trkpt>
      <trkpt lat="43.39674" lon="5.46562">
        <ele>426.87</ele>
        <time>2020-01-03T13:03:26Z</time>
      </trkpt>
      <trkpt lat="43.39681" lon="5.46586">
        <ele>426.77</ele>
        <time>2020-01-03T13:03:50Z</time>
      </trkpt>
      <trkpt lat="43.39676" lon="5.46612">
        <ele>426.66</ele>
        <time>2020-01-03T13:04:14Z</time>
      </trkpt>
      <trkpt lat="43.39672" lon="5.46637">
        <ele>426.57</ele>
        <time>2020-01-03T13:04:33Z</time>
      </trkpt>
      <trkpt lat="43.39666" lon="5.46662">
        <ele>426.45</ele>
        <time>2020-01-03T13:04:55Z</time>
      </trkpt>
      <trkpt lat="43.39659" lon="5.46685">
        <ele>426.23</ele>
        <time>2020-01-03T13:05:13Z</time>
      </trkpt>
      <trkpt lat="43.39644" lon="5.46703">
        <ele>425.78</ele>
        <time>2020-01-03T13:05:41Z</time>
      </trkpt>
      <trkpt lat="43.39634" lon="5.46725">
        <ele>425.41</ele>
        <time>2020-01-03T13:05:59Z</time>
      </trkpt>
      <trkpt lat="43.39636" lon="5.4675">
        <ele>424.94</ele>
        <time>2020-01-03T13:06:26Z</time>
      </trkpt>
      <trkpt lat="43.39621" lon="5.46766">
        <ele>424.74</ele>
        <time>2020-01-03T13:06:38Z</time>
      </trkpt>
      <trkpt lat="43.39613" lon="5.46789">
        <ele>424.53</ele>
        <time>2020-01-03T13:06:50Z</time>
      </trkpt>
      <trkpt lat="43.39604" lon="5.46812">
        <ele>423.97</ele>
        <time>2020-01-03T13:07:14Z</time>
      </trkpt>
      <trkpt lat="43.3959" lon="5.46829">
        <ele>423.02</ele>
        <time>2020-01-03T13:07:42Z</time>
      </trkpt>
      <trkpt lat="43.39573" lon="5.46838">
        <ele>421.95</ele>
        <time>2020-01-03T13:08:05Z</time>
      </trkpt>
      <trkpt lat="43.39558" lon="5.46854">
        <ele>420.63</ele>
        <time>2020-01-03T13:08:27Z</time>
      </trkpt>
      <trkpt lat="43.39542" lon="5.46867">
        <ele>419.33</ele>
        <time>2020-01-03T13:08:47Z</time>
      </trkpt>
      <trkpt lat="43.39527" lon="5.46884">
        <ele>418.2</ele>
        <time>2020-01-03T13:09:07Z</time>
      </trkpt>
      <trkpt lat="43.39522" lon="5.46909">
        <ele>417</ele>
        <time>2020-01-03T13:09:28Z</time>
      </trkpt>
      <trkpt lat="43.39525" lon="5.46934">
        <ele>415.97</ele>
        <time>2020-01-03T13:09:46Z</time>
      </trkpt>
      <trkpt lat="43.39518" lon="5.46957">
        <ele>414.41</ele>
        <time>2020-01-03T13:10:14Z</time>
      </trkpt>
      <trkpt lat="43.39507" lon="5.46978">
        <ele>413.11</ele>
        <time>2020-01-03T13:10:35Z</time>
      </trkpt>
      <trkpt lat="43.39505" lon="5.47004">
        <ele>411.73</ele>
        <time>2020-01-03T13:10:54Z</time>
      </trkpt>
      <trkpt lat="43.39503" lon="5.47028">
        <ele>404.22</ele>
        <time>2020-01-03T13:14:06Z</time>
      </trkpt>
      <trkpt lat="43.39488" lon="5.47043">
        <ele>404.15</ele>
        <time>2020-01-03T13:14:30Z</time>
      </trkpt>
      <trkpt lat="43.39469" lon="5.47053">
        <ele>403.92</ele>
        <time>2020-01-03T13:14:51Z</time>
      </trkpt>
      <trkpt lat="43.39455" lon="5.4707">
        <ele>403.54</ele>
        <time>2020-01-03T13:15:08Z</time>
      </trkpt>
      <trkpt lat="43.39444" lon="5.47091">
        <ele>402.47</ele>
        <time>2020-01-03T13:15:32Z</time>
      </trkpt>
      <trkpt lat="43.3943" lon="5.47106">
        <ele>401.79</ele>
        <time>2020-01-03T13:15:47Z</time>
      </trkpt>
      <trkpt lat="43.39416" lon="5.47124">
        <ele>400.98</ele>
        <time>2020-01-03T13:16:06Z</time>
      </trkpt>
      <trkpt lat="43.39398" lon="5.4712">
        <ele>400.14</ele>
        <time>2020-01-03T13:16:25Z</time>
      </trkpt>
      <trkpt lat="43.3938" lon="5.47127">
        <ele>399.53</ele>
        <time>2020-01-03T13:16:39Z</time>
      </trkpt>
      <trkpt lat="43.39362" lon="5.47135">
        <ele>398.79</ele>
        <time>2020-01-03T13:16:57Z</time>
      </trkpt>
      <trkpt lat="43.39344" lon="5.47141">
        <ele>398.23</ele>
        <time>2020-01-03T13:17:12Z</time>
      </trkpt>
      <trkpt lat="43.39326" lon="5.47144">
        <ele>397.51</ele>
        <time>2020-01-03T13:17:32Z</time>
      </trkpt>
      <trkpt lat="43.39308" lon="5.47148">
        <ele>396.89</ele>
        <time>2020-01-03T13:17:50Z</time>
      </trkpt>
      <trkpt lat="43.39292" lon="5.47158">
        <ele>396.24</ele>
        <time>2020-01-03T13:18:08Z</time>
      </trkpt>
      <trkpt lat="43.39274" lon="5.47165">
        <ele>395.62</ele>
        <time>2020-01-03T13:18:25Z</time>
      </trkpt>
      <trkpt lat="43.39257" lon="5.47171">
        <ele>395.08</ele>
        <time>2020-01-03T13:18:40Z</time>
      </trkpt>
      <trkpt lat="43.39239" lon="5.47178">
        <ele>394.49</ele>
        <time>2020-01-03T13:18:55Z</time>
      </trkpt>
      <trkpt lat="43.39226" lon="5.47196">
        <ele>393.81</ele>
        <time>2020-01-03T13:19:13Z</time>
      </trkpt>
      <trkpt lat="43.39209" lon="5.47215">
        <ele>393.3</ele>
        <time>2020-01-03T13:19:27Z</time>
      </trkpt>
      <trkpt lat="43.39192" lon="5.47226">
        <ele>392.71</ele>
        <time>2020-01-03T13:19:43Z</time>
      </trkpt>
      <trkpt lat="43.39174" lon="5.47233">
        <ele>391.97</ele>
        <time>2020-01-03T13:20:05Z</time>
      </trkpt>
      <trkpt lat="43.39155" lon="5.47238">
        <ele>391.3</ele>
        <time>2020-01-03T13:20:24Z</time>
      </trkpt>
      <trkpt lat="43.39137" lon="5.47244">
        <ele>390.56</ele>
        <time>2020-01-03T13:20:44Z</time>
      </trkpt>
      <trkpt lat="43.39119" lon="5.47242">
        <ele>389.72</ele>
        <time>2020-01-03T13:21:05Z</time>
      </trkpt>
      <trkpt lat="43.39105" lon="5.47225">
        <ele>389.16</ele>
        <time>2020-01-03T13:21:19Z</time>
      </trkpt>
      <trkpt lat="43.39092" lon="5.47208">
        <ele>388.42</ele>
        <time>2020-01-03T13:21:37Z</time>
      </trkpt>
      <trkpt lat="43.39074" lon="5.47205">
        <ele>387.29</ele>
        <time>2020-01-03T13:22:00Z</time>
      </trkpt>
      <trkpt lat="43.39058" lon="5.47219">
        <ele>385.97</ele>
        <time>2020-01-03T13:22:16Z</time>
      </trkpt>
      <trkpt lat="43.39042" lon="5.47232">
        <ele>382.34</ele>
        <time>2020-01-03T13:22:40Z</time>
      </trkpt>
      <trkpt lat="43.39027" lon="5.47248">
        <ele>378.06</ele>
        <time>2020-01-03T13:23:08Z</time>
      </trkpt>
      <trkpt lat="43.39011" lon="5.47263">
        <ele>375.3</ele>
        <time>2020-01-03T13:23:28Z</time>
      </trkpt>
      <trkpt lat="43.38997" lon="5.47279">
        <ele>369.43</ele>
        <time>2020-01-03T13:23:42Z</time>
      </trkpt>
      <trkpt lat="43.3898" lon="5.4729">
        <ele>365.62</ele>
        <time>2020-01-03T13:24:00Z</time>
      </trkpt>
      <trkpt lat="43.38963" lon="5.47301">
        <ele>364.86</ele>
        <time>2020-01-03T13:24:18Z</time>
      </trkpt>
      <trkpt lat="43.38946" lon="5.47312">
        <ele>363.52</ele>
        <time>2020-01-03T13:24:39Z</time>
      </trkpt>
      <trkpt lat="43.38931" lon="5.47326">
        <ele>362.29</ele>
        <time>2020-01-03T13:24:56Z</time>
      </trkpt>
      <trkpt lat="43.3892" lon="5.47345">
        <ele>360.89</ele>
        <time>2020-01-03T13:25:14Z</time>
      </trkpt>
      <trkpt lat="43.38907" lon="5.47363">
        <ele>359.58</ele>
        <time>2020-01-03T13:25:30Z</time>
      </trkpt>
      <trkpt lat="43.38894" lon="5.47382">
        <ele>358.3</ele>
        <time>2020-01-03T13:25:45Z</time>
      </trkpt>
      <trkpt lat="43.38883" lon="5.47403">
        <ele>357.24</ele>
        <time>2020-01-03T13:25:57Z</time>
      </trkpt>
      <trkpt lat="43.3887" lon="5.47422">
        <ele>355.37</ele>
        <time>2020-01-03T13:26:20Z</time>
      </trkpt>
      <trkpt lat="43.38855" lon="5.47437">
        <ele>353.9</ele>
        <time>2020-01-03T13:26:38Z</time>
      </trkpt>
      <trkpt lat="43.38839" lon="5.47449">
        <ele>352.52</ele>
        <time>2020-01-03T13:26:56Z</time>
      </trkpt>
      <trkpt lat="43.38821" lon="5.47455">
        <ele>351.44</ele>
        <time>2020-01-03T13:27:13Z</time>
      </trkpt>
      <trkpt lat="43.38803" lon="5.4746">
        <ele>350.64</ele>
        <time>2020-01-03T13:27:28Z</time>
      </trkpt>
      <trkpt lat="43.38785" lon="5.47468">
        <ele>349.89</ele>
        <time>2020-01-03T13:27:45Z</time>
      </trkpt>
      <trkpt lat="43.38768" lon="5.47474">
        <ele>349.13</ele>
        <time>2020-01-03T13:28:02Z</time>
      </trkpt>
      <trkpt lat="43.38751" lon="5.47483">
        <ele>348.36</ele>
        <time>2020-01-03T13:28:23Z</time>
      </trkpt>
      <trkpt lat="43.38734" lon="5.47492">
        <ele>347.81</ele>
        <time>2020-01-03T13:28:43Z</time>
      </trkpt>
      <trkpt lat="43.38719" lon="5.47507">
        <ele>347.42</ele>
        <time>2020-01-03T13:28:59Z</time>
      </trkpt>
      <trkpt lat="43.38706" lon="5.47525">
        <ele>347.04</ele>
        <time>2020-01-03T13:29:17Z</time>
      </trkpt>
      <trkpt lat="43.38695" lon="5.47546">
        <ele>346.68</ele>
        <time>2020-01-03T13:29:31Z</time>
      </trkpt>
      <trkpt lat="43.38687" lon="5.47568">
        <ele>345.93</ele>
        <time>2020-01-03T13:29:48Z</time>
      </trkpt>
      <trkpt lat="43.38674" lon="5.47586">
        <ele>345.26</ele>
        <time>2020-01-03T13:30:02Z</time>
      </trkpt>
      <trkpt lat="43.38657" lon="5.47597">
        <ele>344.04</ele>
        <time>2020-01-03T13:30:24Z</time>
      </trkpt>
      <trkpt lat="43.38649" lon="5.4762">
        <ele>343.36</ele>
        <time>2020-01-03T13:30:37Z</time>
      </trkpt>
      <trkpt lat="43.38646" lon="5.47645">
        <ele>341.89</ele>
        <time>2020-01-03T13:31:05Z</time>
      </trkpt>
      <trkpt lat="43.38653" lon="5.47668">
        <ele>338.16</ele>
        <time>2020-01-03T13:32:48Z</time>
      </trkpt>
      <trkpt lat="43.38654" lon="5.47694">
        <ele>337.64</ele>
        <time>2020-01-03T13:33:41Z</time>
      </trkpt>
      <trkpt lat="43.38659" lon="5.47718">
        <ele>337.42</ele>
        <time>2020-01-03T13:33:58Z</time>
      </trkpt>
      <trkpt lat="43.38657" lon="5.47743">
        <ele>337.28</ele>
        <time>2020-01-03T13:34:19Z</time>
      </trkpt>
      <trkpt lat="43.38643" lon="5.4776">
        <ele>337.16</ele>
        <time>2020-01-03T13:34:40Z</time>
      </trkpt>
      <trkpt lat="43.38626" lon="5.47767">
        <ele>336.94</ele>
        <time>2020-01-03T13:35:01Z</time>
      </trkpt>
      <trkpt lat="43.38608" lon="5.47774">
        <ele>336.65</ele>
        <time>2020-01-03T13:35:21Z</time>
      </trkpt>
      <trkpt lat="43.38591" lon="5.47784">
        <ele>336.39</ele>
        <time>2020-01-03T13:35:42Z</time>
      </trkpt>
      <trkpt lat="43.38574" lon="5.47791">
        <ele>336.21</ele>
        <time>2020-01-03T13:35:59Z</time>
      </trkpt>
      <trkpt lat="43.38555" lon="5.47795">
        <ele>336.03</ele>
        <time>2020-01-03T13:36:15Z</time>
      </trkpt>
      <trkpt lat="43.38537" lon="5.47806">
        <ele>335.89</ele>
        <time>2020-01-03T13:36:34Z</time>
      </trkpt>
      <trkpt lat="43.38531" lon="5.47829">
        <ele>335.81</ele>
        <time>2020-01-03T13:36:56Z</time>
      </trkpt>
      <trkpt lat="43.38523" lon="5.47852">
        <ele>335.79</ele>
        <time>2020-01-03T13:37:14Z</time>
      </trkpt>
      <trkpt lat="43.38515" lon="5.47876">
        <ele>335.8</ele>
        <time>2020-01-03T13:37:35Z</time>
      </trkpt>
      <trkpt lat="43.38508" lon="5.47901">
        <ele>335.87</ele>
        <time>2020-01-03T13:37:59Z</time>
      </trkpt>
      <trkpt lat="43.38501" lon="5.47923">
        <ele>335.93</ele>
        <time>2020-01-03T13:38:15Z</time>
      </trkpt>
      <trkpt lat="43.38493" lon="5.47946">
        <ele>336.07</ele>
        <time>2020-01-03T13:38:31Z</time>
      </trkpt>
      <trkpt lat="43.38481" lon="5.47965">
        <ele>336.23</ele>
        <time>2020-01-03T13:38:45Z</time>
      </trkpt>
      <trkpt lat="43.38465" lon="5.47977">
        <ele>336.46</ele>
        <time>2020-01-03T13:39:02Z</time>
      </trkpt>
      <trkpt lat="43.38448" lon="5.47986">
        <ele>336.65</ele>
        <time>2020-01-03T13:39:17Z</time>
      </trkpt>
      <trkpt lat="43.38432" lon="5.47997">
        <ele>336.83</ele>
        <time>2020-01-03T13:39:30Z</time>
      </trkpt>
      <trkpt lat="43.38416" lon="5.4801">
        <ele>337.06</ele>
        <time>2020-01-03T13:39:45Z</time>
      </trkpt>
      <trkpt lat="43.38405" lon="5.48031">
        <ele>337.37</ele>
        <time>2020-01-03T13:40:01Z</time>
      </trkpt>
      <trkpt lat="43.38413" lon="5.48055">
        <ele>337.89</ele>
        <time>2020-01-03T13:40:23Z</time>
      </trkpt>
      <trkpt lat="43.38426" lon="5.48072">
        <ele>338.67</ele>
        <time>2020-01-03T13:40:47Z</time>
      </trkpt>
      <trkpt lat="43.38443" lon="5.48083">
        <ele>338.95</ele>
        <time>2020-01-03T13:40:58Z</time>
      </trkpt>
      <trkpt lat="43.38461" lon="5.48084">
        <ele>339.47</ele>
        <time>2020-01-03T13:41:17Z</time>
      </trkpt>
      <trkpt lat="43.38479" lon="5.48092">
        <ele>339.81</ele>
        <time>2020-01-03T13:41:31Z</time>
      </trkpt>
      <trkpt lat="43.38496" lon="5.48102">
        <ele>340.24</ele>
        <time>2020-01-03T13:41:47Z</time>
      </trkpt>
      <trkpt lat="43.38513" lon="5.48112">
        <ele>340.75</ele>
        <time>2020-01-03T13:42:04Z</time>
      </trkpt>
      <trkpt lat="43.38531" lon="5.48116">
        <ele>341.23</ele>
        <time>2020-01-03T13:42:20Z</time>
      </trkpt>
      <trkpt lat="43.38549" lon="5.48122">
        <ele>341.59</ele>
        <time>2020-01-03T13:42:31Z</time>
      </trkpt>
      <trkpt lat="43.38562" lon="5.4814">
        <ele>342.3</ele>
        <time>2020-01-03T13:42:48Z</time>
      </trkpt>
      <trkpt lat="43.38574" lon="5.4816">
        <ele>343.46</ele>
        <time>2020-01-03T13:43:11Z</time>
      </trkpt>
      <trkpt lat="43.38588" lon="5.48176">
        <ele>344.69</ele>
        <time>2020-01-03T13:43:29Z</time>
      </trkpt>
      <trkpt lat="43.38606" lon="5.48183">
        <ele>346.1</ele>
        <time>2020-01-03T13:43:46Z</time>
      </trkpt>
      <trkpt lat="43.38624" lon="5.4819">
        <ele>347.67</ele>
        <time>2020-01-03T13:44:03Z</time>
      </trkpt>
      <trkpt lat="43.38636" lon="5.48208">
        <ele>349.75</ele>
        <time>2020-01-03T13:44:23Z</time>
      </trkpt>
      <trkpt lat="43.38648" lon="5.48229">
        <ele>352.66</ele>
        <time>2020-01-03T13:44:49Z</time>
      </trkpt>
      <trkpt lat="43.38645" lon="5.48254">
        <ele>354.85</ele>
        <time>2020-01-03T13:45:09Z</time>
      </trkpt>
      <trkpt lat="43.38644" lon="5.48279">
        <ele>357.17</ele>
        <time>2020-01-03T13:45:32Z</time>
      </trkpt>
      <trkpt lat="43.38635" lon="5.48303">
        <ele>358.6</ele>
        <time>2020-01-03T13:45:51Z</time>
      </trkpt>
      <trkpt lat="43.38628" lon="5.48328">
        <ele>359.66</ele>
        <time>2020-01-03T13:46:09Z</time>
      </trkpt>
      <trkpt lat="43.38626" lon="5.48353">
        <ele>360.44</ele>
        <time>2020-01-03T13:46:25Z</time>
      </trkpt>
      <trkpt lat="43.3864" lon="5.48371">
        <ele>362.11</ele>
        <time>2020-01-03T13:46:55Z</time>
      </trkpt>
      <trkpt lat="43.38655" lon="5.48385">
        <ele>363.15</ele>
        <time>2020-01-03T13:47:12Z</time>
      </trkpt>
      <trkpt lat="43.3867" lon="5.48401">
        <ele>364.71</ele>
        <time>2020-01-03T13:47:36Z</time>
      </trkpt>
      <trkpt lat="43.38686" lon="5.48413">
        <ele>366.45</ele>
        <time>2020-01-03T13:48:03Z</time>
      </trkpt>
      <trkpt lat="43.38702" lon="5.48426">
        <ele>367.82</ele>
        <time>2020-01-03T13:48:24Z</time>
      </trkpt>
      <trkpt lat="43.3872" lon="5.48435">
        <ele>369.57</ele>
        <time>2020-01-03T13:48:51Z</time>
      </trkpt>
      <trkpt lat="43.38739" lon="5.48432">
        <ele>372.11</ele>
        <time>2020-01-03T13:49:44Z</time>
      </trkpt>
      <trkpt lat="43.38752" lon="5.48413">
        <ele>373.72</ele>
        <time>2020-01-03T13:50:06Z</time>
      </trkpt>
      <trkpt lat="43.38762" lon="5.4839">
        <ele>374.75</ele>
        <time>2020-01-03T13:50:24Z</time>
      </trkpt>
      <trkpt lat="43.38776" lon="5.48373">
        <ele>375.51</ele>
        <time>2020-01-03T13:50:40Z</time>
      </trkpt>
      <trkpt lat="43.38794" lon="5.48381">
        <ele>376.45</ele>
        <time>2020-01-03T13:51:03Z</time>
      </trkpt>
      <trkpt lat="43.38812" lon="5.48386">
        <ele>377.46</ele>
        <time>2020-01-03T13:51:34Z</time>
      </trkpt>
      <trkpt lat="43.38831" lon="5.4839">
        <ele>378.11</ele>
        <time>2020-01-03T13:51:55Z</time>
      </trkpt>
      <trkpt lat="43.3885" lon="5.48396">
        <ele>378.55</ele>
        <time>2020-01-03T13:52:15Z</time>
      </trkpt>
      <trkpt lat="43.38865" lon="5.48382">
        <ele>378.84</ele>
        <time>2020-01-03T13:52:32Z</time>
      </trkpt>
      <trkpt lat="43.38878" lon="5.48365">
        <ele>379.08</ele>
        <time>2020-01-03T13:52:50Z</time>
      </trkpt>
      <trkpt lat="43.38888" lon="5.48343">
        <ele>379.24</ele>
        <time>2020-01-03T13:53:12Z</time>
      </trkpt>
      <trkpt lat="43.389" lon="5.48324">
        <ele>379.29</ele>
        <time>2020-01-03T13:53:26Z</time>
      </trkpt>
      <trkpt lat="43.38915" lon="5.48311">
        <ele>379.32</ele>
        <time>2020-01-03T13:53:42Z</time>
      </trkpt>
      <trkpt lat="43.38931" lon="5.48298">
        <ele>379.32</ele>
        <time>2020-01-03T13:54:01Z</time>
      </trkpt>
      <trkpt lat="43.38945" lon="5.48281">
        <ele>379.16</ele>
        <time>2020-01-03T13:54:23Z</time>
      </trkpt>
      <trkpt lat="43.38962" lon="5.48269">
        <ele>378.96</ele>
        <time>2020-01-03T13:54:42Z</time>
      </trkpt>
      <trkpt lat="43.3898" lon="5.48268">
        <ele>378.67</ele>
        <time>2020-01-03T13:55:09Z</time>
      </trkpt>
      <trkpt lat="43.38982" lon="5.48294">
        <ele>378.49</ele>
        <time>2020-01-03T13:55:25Z</time>
      </trkpt>
      <trkpt lat="43.38979" lon="5.48318">
        <ele>378.31</ele>
        <time>2020-01-03T13:55:42Z</time>
      </trkpt>
      <trkpt lat="43.38977" lon="5.48343">
        <ele>378.11</ele>
        <time>2020-01-03T13:55:59Z</time>
      </trkpt>
      <trkpt lat="43.38975" lon="5.48369">
        <ele>377.9</ele>
        <time>2020-01-03T13:56:14Z</time>
      </trkpt>
      <trkpt lat="43.38974" lon="5.48396">
        <ele>377.67</ele>
        <time>2020-01-03T13:56:26Z</time>
      </trkpt>
      <trkpt lat="43.38977" lon="5.4842">
        <ele>377.3</ele>
        <time>2020-01-03T13:56:43Z</time>
      </trkpt>
      <trkpt lat="43.38989" lon="5.48441">
        <ele>376.82</ele>
        <time>2020-01-03T13:57:06Z</time>
      </trkpt>
      <trkpt lat="43.38999" lon="5.48464">
        <ele>376.26</ele>
        <time>2020-01-03T13:57:26Z</time>
      </trkpt>
      <trkpt lat="43.39011" lon="5.48485">
        <ele>375.65</ele>
        <time>2020-01-03T13:57:49Z</time>
      </trkpt>
      <trkpt lat="43.39022" lon="5.48506">
        <ele>375.32</ele>
        <time>2020-01-03T13:58:02Z</time>
      </trkpt>
      <trkpt lat="43.39034" lon="5.48527">
        <ele>374.67</ele>
        <time>2020-01-03T13:58:28Z</time>
      </trkpt>
      <trkpt lat="43.39051" lon="5.48536">
        <ele>374.31</ele>
        <time>2020-01-03T13:58:42Z</time>
      </trkpt>
      <trkpt lat="43.3907" lon="5.48533">
        <ele>373.85</ele>
        <time>2020-01-03T13:58:59Z</time>
      </trkpt>
      <trkpt lat="43.39085" lon="5.48518">
        <ele>373.44</ele>
        <time>2020-01-03T13:59:16Z</time>
      </trkpt>
      <trkpt lat="43.39099" lon="5.48501">
        <ele>372.94</ele>
        <time>2020-01-03T13:59:34Z</time>
      </trkpt>
      <trkpt lat="43.39112" lon="5.48483">
        <ele>372.42</ele>
        <time>2020-01-03T13:59:54Z</time>
      </trkpt>
      <trkpt lat="43.39129" lon="5.4847">
        <ele>371.98</ele>
        <time>2020-01-03T14:00:14Z</time>
      </trkpt>
      <trkpt lat="43.39147" lon="5.48472">
        <ele>371.54</ele>
        <time>2020-01-03T14:00:36Z</time>
      </trkpt>
      <trkpt lat="43.39165" lon="5.48481">
        <ele>371.33</ele>
        <time>2020-01-03T14:00:49Z</time>
      </trkpt>
      <trkpt lat="43.39181" lon="5.4849">
        <ele>370.97</ele>
        <time>2020-01-03T14:01:10Z</time>
      </trkpt>
      <trkpt lat="43.39194" lon="5.48509">
        <ele>370.64</ele>
        <time>2020-01-03T14:01:30Z</time>
      </trkpt>
      <trkpt lat="43.39212" lon="5.48508">
        <ele>370.42</ele>
        <time>2020-01-03T14:01:45Z</time>
      </trkpt>
      <trkpt lat="43.3923" lon="5.48515">
        <ele>370.08</ele>
        <time>2020-01-03T14:02:06Z</time>
      </trkpt>
      <trkpt lat="43.39248" lon="5.48507">
        <ele>369.7</ele>
        <time>2020-01-03T14:02:33Z</time>
      </trkpt>
      <trkpt lat="43.3926" lon="5.48487">
        <ele>369.42</ele>
        <time>2020-01-03T14:02:50Z</time>
      </trkpt>
      <trkpt lat="43.39273" lon="5.48468">
        <ele>369.04</ele>
        <time>2020-01-03T14:03:13Z</time>
      </trkpt>
      <trkpt lat="43.3929" lon="5.4846">
        <ele>368.73</ele>
        <time>2020-01-03T14:03:37Z</time>
      </trkpt>
      <trkpt lat="43.39308" lon="5.48462">
        <ele>368.5</ele>
        <time>2020-01-03T14:03:56Z</time>
      </trkpt>
      <trkpt lat="43.39325" lon="5.48468">
        <ele>368.21</ele>
        <time>2020-01-03T14:04:14Z</time>
      </trkpt>
      <trkpt lat="43.3934" lon="5.48483">
        <ele>367.89</ele>
        <time>2020-01-03T14:04:32Z</time>
      </trkpt>
      <trkpt lat="43.39358" lon="5.48486">
        <ele>367.59</ele>
        <time>2020-01-03T14:04:46Z</time>
      </trkpt>
      <trkpt lat="43.39375" lon="5.48496">
        <ele>367.26</ele>
        <time>2020-01-03T14:05:03Z</time>
      </trkpt>
      <trkpt lat="43.39395" lon="5.48497">
        <ele>367.01</ele>
        <time>2020-01-03T14:05:18Z</time>
      </trkpt>
      <trkpt lat="43.39413" lon="5.48494">
        <ele>366.71</ele>
        <time>2020-01-03T14:05:38Z</time>
      </trkpt>
      <trkpt lat="43.39429" lon="5.48483">
        <ele>366.53</ele>
        <time>2020-01-03T14:05:59Z</time>
      </trkpt>
      <trkpt lat="43.39435" lon="5.48458">
        <ele>366.2</ele>
        <time>2020-01-03T14:06:23Z</time>
      </trkpt>
      <trkpt lat="43.39447" lon="5.4844">
        <ele>365.92</ele>
        <time>2020-01-03T14:06:44Z</time>
      </trkpt>
      <trkpt lat="43.39466" lon="5.4844">
        <ele>365.76</ele>
        <time>2020-01-03T14:07:08Z</time>
      </trkpt>
      <trkpt lat="43.39484" lon="5.48435">
        <ele>365.73</ele>
        <time>2020-01-03T14:07:32Z</time>
      </trkpt>
      <trkpt lat="43.39501" lon="5.48426">
        <ele>365.8</ele>
        <time>2020-01-03T14:07:57Z</time>
      </trkpt>
      <trkpt lat="43.39519" lon="5.48421">
        <ele>365.87</ele>
        <time>2020-01-03T14:08:17Z</time>
      </trkpt>
      <trkpt lat="43.39537" lon="5.48422">
        <ele>366.05</ele>
        <time>2020-01-03T14:08:38Z</time>
      </trkpt>
      <trkpt lat="43.39555" lon="5.48414">
        <ele>366.2</ele>
        <time>2020-01-03T14:08:56Z</time>
      </trkpt>
      <trkpt lat="43.39569" lon="5.48398">
        <ele>366.51</ele>
        <time>2020-01-03T14:09:20Z</time>
      </trkpt>
      <trkpt lat="43.39586" lon="5.48384">
        <ele>366.69</ele>
        <time>2020-01-03T14:09:38Z</time>
      </trkpt>
      <trkpt lat="43.39604" lon="5.48374">
        <ele>366.89</ele>
        <time>2020-01-03T14:09:56Z</time>
      </trkpt>
      <trkpt lat="43.39622" lon="5.48377">
        <ele>367.26</ele>
        <time>2020-01-03T14:10:18Z</time>
      </trkpt>
      <trkpt lat="43.3964" lon="5.48383">
        <ele>367.54</ele>
        <time>2020-01-03T14:10:35Z</time>
      </trkpt>
      <trkpt lat="43.39659" lon="5.48384">
        <ele>368.06</ele>
        <time>2020-01-03T14:10:56Z</time>
      </trkpt>
      <trkpt lat="43.39677" lon="5.48381">
        <ele>368.53</ele>
        <time>2020-01-03T14:11:15Z</time>
      </trkpt>
      <trkpt lat="43.39692" lon="5.48368">
        <ele>369.07</ele>
        <time>2020-01-03T14:11:29Z</time>
      </trkpt>
      <trkpt lat="43.39706" lon="5.48351">
        <ele>370.18</ele>
        <time>2020-01-03T14:11:48Z</time>
      </trkpt>
      <trkpt lat="43.39724" lon="5.48346">
        <ele>371.5</ele>
        <time>2020-01-03T14:12:06Z</time>
      </trkpt>
      <trkpt lat="43.39741" lon="5.48333">
        <ele>373.01</ele>
        <time>2020-01-03T14:12:26Z</time>
      </trkpt>
      <trkpt lat="43.39759" lon="5.48328">
        <ele>374.49</ele>
        <time>2020-01-03T14:12:46Z</time>
      </trkpt>
      <trkpt lat="43.39775" lon="5.48339">
        <ele>375.51</ele>
        <time>2020-01-03T14:13:02Z</time>
      </trkpt>
      <trkpt lat="43.39792" lon="5.4835">
        <ele>376.44</ele>
        <time>2020-01-03T14:13:22Z</time>
      </trkpt>
      <trkpt lat="43.39808" lon="5.48363">
        <ele>377.1</ele>
        <time>2020-01-03T14:13:39Z</time>
      </trkpt>
      <trkpt lat="43.39823" lon="5.48375">
        <ele>377.56</ele>
        <time>2020-01-03T14:13:53Z</time>
      </trkpt>
      <trkpt lat="43.3984" lon="5.48384">
        <ele>378.78</ele>
        <time>2020-01-03T14:14:27Z</time>
      </trkpt>
      <trkpt lat="43.39857" lon="5.48394">
        <ele>379.5</ele>
        <time>2020-01-03T14:14:46Z</time>
      </trkpt>
      <trkpt lat="43.39871" lon="5.48409">
        <ele>380.27</ele>
        <time>2020-01-03T14:15:05Z</time>
      </trkpt>
      <trkpt lat="43.39891" lon="5.48407">
        <ele>381.12</ele>
        <time>2020-01-03T14:15:22Z</time>
      </trkpt>
      <trkpt lat="43.39907" lon="5.48394">
        <ele>381.78</ele>
        <time>2020-01-03T14:15:35Z</time>
      </trkpt>
      <trkpt lat="43.39919" lon="5.48376">
        <ele>382.88</ele>
        <time>2020-01-03T14:15:56Z</time>
      </trkpt>
      <trkpt lat="43.39928" lon="5.48353">
        <ele>384.06</ele>
        <time>2020-01-03T14:16:18Z</time>
      </trkpt>
      <trkpt lat="43.39936" lon="5.48331">
        <ele>384.94</ele>
        <time>2020-01-03T14:16:37Z</time>
      </trkpt>
      <trkpt lat="43.39945" lon="5.48308">
        <ele>385.94</ele>
        <time>2020-01-03T14:17:00Z</time>
      </trkpt>
      <trkpt lat="43.39955" lon="5.48286">
        <ele>387.48</ele>
        <time>2020-01-03T14:17:19Z</time>
      </trkpt>
      <trkpt lat="43.39968" lon="5.48268">
        <ele>388.57</ele>
        <time>2020-01-03T14:17:33Z</time>
      </trkpt>
      <trkpt lat="43.39983" lon="5.48254">
        <ele>393.48</ele>
        <time>2020-01-03T14:18:37Z</time>
      </trkpt>
      <trkpt lat="43.4" lon="5.48243">
        <ele>394.57</ele>
        <time>2020-01-03T14:18:57Z</time>
      </trkpt>
      <trkpt lat="43.40017" lon="5.48232">
        <ele>395.9</ele>
        <time>2020-01-03T14:19:19Z</time>
      </trkpt>
      <trkpt lat="43.40035" lon="5.48236">
        <ele>397.1</ele>
        <time>2020-01-03T14:19:42Z</time>
      </trkpt>
      <trkpt lat="43.40053" lon="5.48239">
        <ele>398.2</ele>
        <time>2020-01-03T14:20:06Z</time>
      </trkpt>
      <trkpt lat="43.40067" lon="5.48256">
        <ele>398.79</ele>
        <time>2020-01-03T14:20:25Z</time>
      </trkpt>
      <trkpt lat="43.40086" lon="5.48257">
        <ele>399.84</ele>
        <time>2020-01-03T14:21:05Z</time>
      </trkpt>
      <trkpt lat="43.40104" lon="5.48251">
        <ele>400.67</ele>
        <time>2020-01-03T14:21:25Z</time>
      </trkpt>
      <trkpt lat="43.40122" lon="5.48246">
        <ele>402.77</ele>
        <time>2020-01-03T14:22:00Z</time>
      </trkpt>
      <trkpt lat="43.40141" lon="5.48242">
        <ele>404.17</ele>
        <time>2020-01-03T14:22:25Z</time>
      </trkpt>
      <trkpt lat="43.40159" lon="5.48244">
        <ele>406.38</ele>
        <time>2020-01-03T14:23:03Z</time>
      </trkpt>
      <trkpt lat="43.40178" lon="5.48241">
        <ele>408.66</ele>
        <time>2020-01-03T14:23:31Z</time>
      </trkpt>
      <trkpt lat="43.40195" lon="5.48232">
        <ele>411.72</ele>
        <time>2020-01-03T14:24:01Z</time>
      </trkpt>
      <trkpt lat="43.40209" lon="5.48215">
        <ele>416.04</ele>
        <time>2020-01-03T14:24:44Z</time>
      </trkpt>
      <trkpt lat="43.40225" lon="5.48203">
        <ele>421.08</ele>
        <time>2020-01-03T14:25:22Z</time>
      </trkpt>
      <trkpt lat="43.40243" lon="5.48201">
        <ele>423.97</ele>
        <time>2020-01-03T14:25:46Z</time>
      </trkpt>
      <trkpt lat="43.40261" lon="5.48203">
        <ele>437.16</ele>
        <time>2020-01-03T14:27:01Z</time>
      </trkpt>
      <trkpt lat="43.4028" lon="5.48206">
        <ele>440.98</ele>
        <time>2020-01-03T14:27:27Z</time>
      </trkpt>
      <trkpt lat="43.40298" lon="5.48207">
        <ele>445.33</ele>
        <time>2020-01-03T14:27:55Z</time>
      </trkpt>
      <trkpt lat="43.40315" lon="5.48218">
        <ele>453.84</ele>
        <time>2020-01-03T14:28:52Z</time>
      </trkpt>
      <trkpt lat="43.40332" lon="5.48228">
        <ele>457.4</ele>
        <time>2020-01-03T14:29:18Z</time>
      </trkpt>
      <trkpt lat="43.40349" lon="5.4824">
        <ele>461.17</ele>
        <time>2020-01-03T14:29:47Z</time>
      </trkpt>
      <trkpt lat="43.40367" lon="5.4824">
        <ele>468.37</ele>
        <time>2020-01-03T14:32:51Z</time>
      </trkpt>
      <trkpt lat="43.40355" lon="5.48259">
        <ele>470.68</ele>
        <time>2020-01-03T14:34:16Z</time>
      </trkpt>
      <trkpt lat="43.40344" lon="5.48279">
        <ele>471.42</ele>
        <time>2020-01-03T14:35:36Z</time>
      </trkpt>
      <trkpt lat="43.40331" lon="5.48298">
        <ele>472.46</ele>
        <time>2020-01-03T14:36:52Z</time>
      </trkpt>
      <trkpt lat="43.40349" lon="5.48308">
        <ele>473.37</ele>
        <time>2020-01-03T14:37:46Z</time>
      </trkpt>
      <trkpt lat="43.40363" lon="5.48336">
        <ele>473.37</ele>
        <time>2020-01-03T14:37:47Z</time>
      </trkpt>
      <trkpt lat="43.40372" lon="5.48368">
        <ele>473.37</ele>
        <time>2020-01-03T14:37:52Z</time>
      </trkpt>
      <trkpt lat="43.403" lon="5.4816">
        <ele>473.32</ele>
        <time>2020-01-03T14:41:49Z</time>
      </trkpt>
      <trkpt lat="43.40315" lon="5.48174">
        <ele>473.48</ele>
        <time>2020-01-03T14:41:59Z</time>
      </trkpt>
      <trkpt lat="43.40317" lon="5.48203">
        <ele>476.2</ele>
        <time>2020-01-03T14:42:41Z</time>
      </trkpt>
      <trkpt lat="43.40314" lon="5.48227">
        <ele>477.21</ele>
        <time>2020-01-03T14:42:47Z</time>
      </trkpt>
      <trkpt lat="43.4032" lon="5.48251">
        <ele>480.58</ele>
        <time>2020-01-03T14:43:08Z</time>
      </trkpt>
      <trkpt lat="43.40338" lon="5.48257">
        <ele>484.81</ele>
        <time>2020-01-03T14:43:43Z</time>
      </trkpt>
      <trkpt lat="43.40356" lon="5.48258">
        <ele>485.73</ele>
        <time>2020-01-03T14:44:18Z</time>
      </trkpt>
      <trkpt lat="43.40369" lon="5.4824">
        <ele>479.93</ele>
        <time>2020-01-03T14:46:01Z</time>
      </trkpt>
      <trkpt lat="43.40387" lon="5.48242">
        <ele>479.44</ele>
        <time>2020-01-03T14:46:36Z</time>
      </trkpt>
      <trkpt lat="43.40395" lon="5.48219">
        <ele>479.54</ele>
        <time>2020-01-03T14:47:07Z</time>
      </trkpt>
      <trkpt lat="43.40409" lon="5.48201">
        <ele>479.84</ele>
        <time>2020-01-03T14:47:36Z</time>
      </trkpt>
      <trkpt lat="43.40417" lon="5.48179">
        <ele>480.74</ele>
        <time>2020-01-03T14:48:13Z</time>
      </trkpt>
      <trkpt lat="43.40423" lon="5.48203">
        <ele>481.71</ele>
        <time>2020-01-03T14:48:44Z</time>
      </trkpt>
      <trkpt lat="43.4042" lon="5.48227">
        <ele>482.57</ele>
        <time>2020-01-03T14:49:12Z</time>
      </trkpt>
      <trkpt lat="43.40437" lon="5.48216">
        <ele>485.56</ele>
        <time>2020-01-03T14:50:16Z</time>
      </trkpt>
      <trkpt lat="43.40447" lon="5.48196">
        <ele>488.87</ele>
        <time>2020-01-03T14:50:54Z</time>
      </trkpt>
      <trkpt lat="43.40465" lon="5.48189">
        <ele>492.15</ele>
        <time>2020-01-03T14:51:22Z</time>
      </trkpt>
      <trkpt lat="43.40483" lon="5.48189">
        <ele>494.16</ele>
        <time>2020-01-03T14:51:40Z</time>
      </trkpt>
      <trkpt lat="43.40502" lon="5.48192">
        <ele>496.2</ele>
        <time>2020-01-03T14:51:59Z</time>
      </trkpt>
      <trkpt lat="43.40521" lon="5.48188">
        <ele>497.9</ele>
        <time>2020-01-03T14:52:16Z</time>
      </trkpt>
      <trkpt lat="43.4054" lon="5.48182">
        <ele>500.73</ele>
        <time>2020-01-03T14:52:40Z</time>
      </trkpt>
      <trkpt lat="43.40558" lon="5.48181">
        <ele>503.06</ele>
        <time>2020-01-03T14:52:59Z</time>
      </trkpt>
      <trkpt lat="43.40576" lon="5.48173">
        <ele>505.3</ele>
        <time>2020-01-03T14:53:24Z</time>
      </trkpt>
      <trkpt lat="43.40594" lon="5.48168">
        <ele>508.87</ele>
        <time>2020-01-03T14:53:51Z</time>
      </trkpt>
      <trkpt lat="43.40611" lon="5.48179">
        <ele>511.15</ele>
        <time>2020-01-03T14:54:11Z</time>
      </trkpt>
      <trkpt lat="43.40627" lon="5.4819">
        <ele>513.07</ele>
        <time>2020-01-03T14:54:28Z</time>
      </trkpt>
      <trkpt lat="43.40643" lon="5.48202">
        <ele>515.18</ele>
        <time>2020-01-03T14:54:50Z</time>
      </trkpt>
      <trkpt lat="43.4066" lon="5.48214">
        <ele>517.21</ele>
        <time>2020-01-03T14:55:12Z</time>
      </trkpt>
      <trkpt lat="43.40678" lon="5.48215">
        <ele>519.46</ele>
        <time>2020-01-03T14:55:38Z</time>
      </trkpt>
      <trkpt lat="43.40682" lon="5.48239">
        <ele>523.62</ele>
        <time>2020-01-03T14:56:23Z</time>
      </trkpt>
      <trkpt lat="43.40697" lon="5.48253">
        <ele>525.99</ele>
        <time>2020-01-03T14:56:55Z</time>
      </trkpt>
      <trkpt lat="43.4071" lon="5.48272">
        <ele>527.31</ele>
        <time>2020-01-03T14:57:21Z</time>
      </trkpt>
      <trkpt lat="43.40718" lon="5.48294">
        <ele>528.49</ele>
        <time>2020-01-03T14:57:47Z</time>
      </trkpt>
      <trkpt lat="43.40732" lon="5.48311">
        <ele>529.55</ele>
        <time>2020-01-03T14:58:08Z</time>
      </trkpt>
      <trkpt lat="43.40739" lon="5.48335">
        <ele>531.29</ele>
        <time>2020-01-03T14:58:38Z</time>
      </trkpt>
      <trkpt lat="43.40743" lon="5.48359">
        <ele>532.87</ele>
        <time>2020-01-03T14:59:06Z</time>
      </trkpt>
      <trkpt lat="43.40754" lon="5.48379">
        <ele>535.13</ele>
        <time>2020-01-03T14:59:42Z</time>
      </trkpt>
      <trkpt lat="43.40762" lon="5.48402">
        <ele>539.56</ele>
        <time>2020-01-03T15:00:32Z</time>
      </trkpt>
      <trkpt lat="43.4078" lon="5.48406">
        <ele>546.4</ele>
        <time>2020-01-03T15:01:54Z</time>
      </trkpt>
      <trkpt lat="43.40792" lon="5.48425">
        <ele>553.22</ele>
        <time>2020-01-03T15:03:07Z</time>
      </trkpt>
      <trkpt lat="43.40808" lon="5.48415">
        <ele>555.4</ele>
        <time>2020-01-03T15:03:30Z</time>
      </trkpt>
      <trkpt lat="43.4082" lon="5.48394">
        <ele>557.36</ele>
        <time>2020-01-03T15:03:50Z</time>
      </trkpt>
      <trkpt lat="43.40823" lon="5.48369">
        <ele>559.03</ele>
        <time>2020-01-03T15:04:08Z</time>
      </trkpt>
      <trkpt lat="43.40839" lon="5.4838">
        <ele>563.71</ele>
        <time>2020-01-03T15:04:58Z</time>
      </trkpt>
      <trkpt lat="43.40844" lon="5.48405">
        <ele>565.74</ele>
        <time>2020-01-03T15:05:21Z</time>
      </trkpt>
      <trkpt lat="43.40848" lon="5.48431">
        <ele>567.43</ele>
        <time>2020-01-03T15:05:40Z</time>
      </trkpt>
      <trkpt lat="43.40855" lon="5.48455">
        <ele>568.94</ele>
        <time>2020-01-03T15:06:00Z</time>
      </trkpt>
      <trkpt lat="43.40863" lon="5.48479">
        <ele>569.97</ele>
        <time>2020-01-03T15:06:18Z</time>
      </trkpt>
      <trkpt lat="43.4087" lon="5.48502">
        <ele>570.66</ele>
        <time>2020-01-03T15:06:35Z</time>
      </trkpt>
      <trkpt lat="43.4088" lon="5.48524">
        <ele>571.19</ele>
        <time>2020-01-03T15:06:53Z</time>
      </trkpt>
      <trkpt lat="43.40892" lon="5.48542">
        <ele>571.51</ele>
        <time>2020-01-03T15:07:09Z</time>
      </trkpt>
      <trkpt lat="43.40902" lon="5.48563">
        <ele>571.77</ele>
        <time>2020-01-03T15:07:28Z</time>
      </trkpt>
      <trkpt lat="43.40905" lon="5.48588">
        <ele>571.92</ele>
        <time>2020-01-03T15:07:45Z</time>
      </trkpt>
      <trkpt lat="43.40911" lon="5.48612">
        <ele>572.02</ele>
        <time>2020-01-03T15:08:02Z</time>
      </trkpt>
      <trkpt lat="43.40919" lon="5.48635">
        <ele>572.06</ele>
        <time>2020-01-03T15:08:19Z</time>
      </trkpt>
      <trkpt lat="43.40926" lon="5.48659">
        <ele>572</ele>
        <time>2020-01-03T15:08:38Z</time>
      </trkpt>
      <trkpt lat="43.40932" lon="5.48683">
        <ele>571.88</ele>
        <time>2020-01-03T15:08:57Z</time>
      </trkpt>
      <trkpt lat="43.40935" lon="5.48708">
        <ele>571.77</ele>
        <time>2020-01-03T15:09:13Z</time>
      </trkpt>
      <trkpt lat="43.40944" lon="5.48729">
        <ele>571.6</ele>
        <time>2020-01-03T15:09:30Z</time>
      </trkpt>
      <trkpt lat="43.40954" lon="5.48751">
        <ele>571.4</ele>
        <time>2020-01-03T15:09:47Z</time>
      </trkpt>
      <trkpt lat="43.4096" lon="5.48775">
        <ele>571.09</ele>
        <time>2020-01-03T15:10:05Z</time>
      </trkpt>
      <trkpt lat="43.4096" lon="5.488">
        <ele>570.7</ele>
        <time>2020-01-03T15:10:23Z</time>
      </trkpt>
      <trkpt lat="43.40965" lon="5.48825">
        <ele>570.23</ele>
        <time>2020-01-03T15:10:44Z</time>
      </trkpt>
      <trkpt lat="43.40974" lon="5.48846">
        <ele>569.66</ele>
        <time>2020-01-03T15:11:05Z</time>
      </trkpt>
      <trkpt lat="43.40981" lon="5.48869">
        <ele>568.73</ele>
        <time>2020-01-03T15:11:30Z</time>
      </trkpt>
      <trkpt lat="43.40988" lon="5.48894">
        <ele>567.77</ele>
        <time>2020-01-03T15:11:47Z</time>
      </trkpt>
      <trkpt lat="43.40992" lon="5.48918">
        <ele>566.93</ele>
        <time>2020-01-03T15:12:02Z</time>
      </trkpt>
      <trkpt lat="43.40996" lon="5.48943">
        <ele>566.16</ele>
        <time>2020-01-03T15:12:19Z</time>
      </trkpt>
      <trkpt lat="43.4101" lon="5.4896">
        <ele>565.45</ele>
        <time>2020-01-03T15:12:38Z</time>
      </trkpt>
      <trkpt lat="43.41021" lon="5.48982">
        <ele>564.87</ele>
        <time>2020-01-03T15:12:54Z</time>
      </trkpt>
      <trkpt lat="43.41026" lon="5.49006">
        <ele>564.31</ele>
        <time>2020-01-03T15:13:09Z</time>
      </trkpt>
      <trkpt lat="43.41032" lon="5.49031">
        <ele>563.74</ele>
        <time>2020-01-03T15:13:23Z</time>
      </trkpt>
      <trkpt lat="43.41043" lon="5.49052">
        <ele>562.8</ele>
        <time>2020-01-03T15:13:45Z</time>
      </trkpt>
      <trkpt lat="43.41056" lon="5.4907">
        <ele>561.7</ele>
        <time>2020-01-03T15:14:08Z</time>
      </trkpt>
      <trkpt lat="43.41069" lon="5.49088">
        <ele>560.7</ele>
        <time>2020-01-03T15:14:24Z</time>
      </trkpt>
    </trkseg>
  </trk>
</gpx>